createdAt,value
2018-06-28T00:01:06.900Z,15.80
2018-06-28T00:03:35.491Z,15.80
2018-06-28T00:06:04.134Z,15.80
2018-06-28T00:08:32.682Z,15.70
2018-06-28T00:11:02.292Z,15.60
2018-06-28T00:13:30.967Z,15.70
2018-06-28T00:15:59.578Z,15.60
2018-06-28T00:18:28.108Z,15.60
2018-06-28T00:20:56.675Z,15.60
2018-06-28T00:23:25.267Z,15.60
2018-06-28T00:25:53.823Z,15.60
2018-06-28T00:28:22.332Z,15.50
2018-06-28T00:30:51.137Z,15.40
2018-06-28T00:33:19.664Z,15.50
2018-06-28T00:35:48.216Z,15.40
2018-06-28T00:38:16.758Z,15.30
2018-06-28T00:40:45.471Z,15.30
2018-06-28T00:45:42.358Z,15.20
2018-06-28T00:48:10.910Z,15.10
2018-06-28T00:50:39.467Z,15.10
2018-06-28T00:53:08.075Z,15.10
2018-06-28T00:55:36.864Z,15.10
2018-06-28T00:58:05.436Z,15.10
2018-06-28T01:00:34.005Z,15.00
2018-06-28T01:03:02.602Z,15.00
2018-06-28T01:05:31.165Z,15.00
2018-06-28T01:07:59.751Z,15.00
2018-06-28T01:10:28.468Z,14.90
2018-06-28T01:12:57.025Z,14.90
2018-06-28T01:15:25.531Z,14.90
2018-06-28T01:17:54.164Z,14.90
2018-06-28T01:20:22.779Z,14.90
2018-06-28T01:22:51.344Z,14.80
2018-06-28T01:25:19.979Z,14.80
2018-06-28T01:27:48.564Z,14.80
2018-06-28T01:30:17.208Z,14.80
2018-06-28T01:32:45.796Z,14.90
2018-06-28T01:35:14.383Z,14.90
2018-06-28T01:37:42.952Z,14.80
2018-06-28T01:40:11.542Z,14.80
2018-06-28T01:42:51.634Z,14.80
2018-06-28T01:45:20.724Z,14.70
2018-06-28T01:47:49.300Z,14.80
2018-06-28T01:50:17.848Z,14.70
2018-06-28T01:52:46.365Z,14.60
2018-06-28T01:55:14.884Z,14.60
2018-06-28T01:57:43.543Z,14.70
2018-06-28T02:00:12.078Z,14.60
2018-06-28T02:02:40.625Z,14.60
2018-06-28T02:05:09.475Z,14.50
2018-06-28T02:07:37.980Z,14.60
2018-06-28T02:10:06.680Z,14.60
2018-06-28T02:12:35.308Z,14.60
2018-06-28T02:15:04.094Z,14.60
2018-06-28T02:17:32.678Z,14.50
2018-06-28T02:20:01.228Z,14.40
2018-06-28T02:22:29.824Z,14.40
2018-06-28T02:24:58.287Z,14.40
2018-06-28T02:27:26.846Z,14.40
2018-06-28T02:29:55.389Z,14.40
2018-06-28T02:32:23.872Z,14.40
2018-06-28T02:34:52.380Z,14.30
2018-06-28T02:37:20.886Z,14.30
2018-06-28T02:39:49.656Z,14.30
2018-06-28T02:42:18.185Z,14.30
2018-06-28T02:44:46.972Z,14.30
2018-06-28T02:47:15.523Z,14.30
2018-06-28T02:49:44.054Z,14.30
2018-06-28T02:52:12.638Z,14.30
2018-06-28T02:57:09.369Z,14.20
2018-06-28T02:59:37.902Z,14.20
2018-06-28T03:02:06.536Z,14.20
2018-06-28T03:04:35.152Z,14.20
2018-06-28T03:07:04.135Z,14.20
2018-06-28T03:09:32.735Z,14.20
2018-06-28T03:12:01.256Z,14.10
2018-06-28T03:14:29.816Z,14.10
2018-06-28T03:16:58.367Z,14.10
2018-06-28T03:19:26.937Z,14.10
2018-06-28T03:21:55.470Z,14.10
2018-06-28T03:24:24.122Z,14.10
2018-06-28T03:26:52.662Z,14.10
2018-06-28T03:29:21.135Z,14.00
2018-06-28T03:31:49.926Z,14.10
2018-06-28T03:34:18.707Z,14.00
2018-06-28T03:36:47.233Z,14.00
2018-06-28T03:39:15.722Z,14.10
2018-06-28T03:41:44.305Z,14.10
2018-06-28T03:44:13.896Z,14.10
2018-06-28T03:46:42.860Z,14.10
2018-06-28T03:49:12.374Z,14.20
2018-06-28T03:51:40.960Z,14.10
2018-06-28T03:54:09.753Z,14.20
2018-06-28T03:56:38.749Z,14.10
2018-06-28T03:59:07.427Z,14.20
2018-06-28T04:01:36.008Z,14.20
2018-06-28T04:04:04.585Z,14.20
2018-06-28T04:06:33.182Z,14.20
2018-06-28T04:09:02.459Z,14.30
2018-06-28T04:11:30.970Z,14.40
2018-06-28T04:13:59.597Z,14.50
2018-06-28T04:16:28.117Z,14.50
2018-06-28T04:18:56.805Z,14.50
2018-06-28T04:21:26.104Z,14.60
2018-06-28T04:23:54.996Z,14.60
2018-06-28T04:26:24.518Z,14.60
2018-06-28T04:28:53.163Z,14.60
2018-06-28T04:31:21.752Z,14.70
2018-06-28T04:33:50.969Z,14.70
2018-06-28T04:36:19.650Z,14.70
2018-06-28T04:38:48.335Z,14.80
2018-06-28T04:41:16.950Z,14.90
2018-06-28T04:43:45.581Z,15.00
2018-06-28T04:46:14.355Z,15.00
2018-06-28T04:48:43.046Z,15.10
2018-06-28T04:51:11.719Z,15.20
2018-06-28T04:53:40.334Z,15.30
2018-06-28T04:56:09.002Z,15.40
2018-06-28T04:58:37.999Z,15.50
2018-06-28T05:03:34.971Z,15.70
2018-06-28T05:06:03.677Z,15.70
2018-06-28T05:08:32.576Z,15.80
2018-06-28T05:11:01.403Z,15.90
2018-06-28T05:13:30.005Z,16.10
2018-06-28T05:15:58.796Z,16.20
2018-06-28T05:18:27.518Z,16.30
2018-06-28T05:20:56.197Z,16.40
2018-06-28T05:23:24.975Z,16.50
2018-06-28T05:25:53.541Z,16.70
2018-06-28T05:28:22.060Z,16.80
2018-06-28T05:30:50.672Z,17.00
2018-06-28T05:33:19.309Z,17.20
2018-06-28T05:35:47.893Z,17.30
2018-06-28T05:38:16.705Z,17.50
2018-06-28T05:40:45.317Z,17.60
2018-06-28T05:43:13.900Z,17.90
2018-06-28T05:45:42.749Z,18.10
2018-06-28T05:48:11.434Z,18.30
2018-06-28T05:50:40.006Z,18.40
2018-06-28T05:53:08.767Z,18.50
2018-06-28T05:55:37.642Z,18.60
2018-06-28T05:58:06.241Z,18.60
2018-06-28T06:00:34.903Z,18.80
2018-06-28T06:03:03.541Z,18.90
2018-06-28T06:05:32.170Z,19.00
2018-06-28T06:08:00.748Z,19.00
2018-06-28T06:10:29.444Z,19.00
2018-06-28T06:12:58.126Z,19.10
2018-06-28T06:15:27.068Z,19.20
2018-06-28T06:17:55.765Z,19.30
2018-06-28T06:20:24.583Z,19.40
2018-06-28T06:22:53.084Z,19.50
2018-06-28T06:25:21.667Z,19.60
2018-06-28T06:27:50.302Z,19.70
2018-06-28T06:30:18.916Z,19.80
2018-06-28T06:32:47.542Z,19.90
2018-06-28T06:35:16.151Z,20.10
2018-06-28T06:37:44.818Z,20.10
2018-06-28T06:40:13.472Z,20.10
2018-06-28T06:42:42.088Z,20.20
2018-06-28T06:45:10.630Z,20.40
2018-06-28T06:47:39.318Z,20.60
2018-06-28T06:50:07.934Z,20.70
2018-06-28T06:52:36.507Z,20.80
2018-06-28T06:55:05.168Z,20.90
2018-06-28T06:57:33.776Z,20.90
2018-06-28T07:00:02.363Z,20.90
2018-06-28T07:02:30.985Z,20.90
2018-06-28T07:04:59.644Z,21.10
2018-06-28T07:07:28.544Z,21.20
2018-06-28T07:09:57.076Z,21.40
2018-06-28T07:12:25.643Z,21.60
2018-06-28T07:14:54.231Z,21.80
2018-06-28T07:17:22.858Z,22.00
2018-06-28T07:19:51.469Z,22.10
2018-06-28T07:22:20.019Z,22.30
2018-06-28T07:24:48.693Z,22.60
2018-06-28T07:27:17.277Z,22.80
2018-06-28T07:29:46.079Z,22.90
2018-06-28T07:32:14.674Z,23.20
2018-06-28T07:34:43.271Z,23.70
2018-06-28T07:37:11.999Z,24.00
2018-06-28T07:39:41.073Z,24.10
2018-06-28T07:42:09.813Z,24.00
2018-06-28T07:44:38.450Z,24.10
2018-06-28T07:47:07.026Z,24.40
2018-06-28T07:49:35.653Z,24.70
2018-06-28T07:52:04.274Z,24.90
2018-06-28T07:54:32.915Z,24.90
2018-06-28T07:57:02.034Z,25.00
2018-06-28T07:59:30.736Z,25.30
2018-06-28T08:01:59.328Z,25.30
2018-06-28T08:04:27.937Z,25.60
2018-06-28T08:07:03.356Z,26.20
2018-06-28T08:09:31.910Z,26.20
2018-06-28T08:12:01.045Z,26.30
2018-06-28T08:14:29.580Z,26.60
2018-06-28T08:16:58.550Z,26.80
2018-06-28T08:19:27.259Z,27.10
2018-06-28T08:21:55.830Z,27.20
2018-06-28T08:24:24.442Z,27.30
2018-06-28T08:26:53.135Z,27.50
2018-06-28T08:29:22.378Z,27.60
2018-06-28T08:31:51.220Z,27.50
2018-06-28T08:34:19.934Z,27.20
2018-06-28T08:36:48.867Z,27.70
2018-06-28T08:39:17.842Z,27.90
2018-06-28T08:41:47.171Z,27.80
2018-06-28T08:44:15.725Z,28.00
2018-06-28T08:46:44.354Z,28.10
2018-06-28T08:49:14.125Z,28.20
2018-06-28T08:51:42.926Z,28.00
2018-06-28T08:54:11.718Z,28.00
2018-06-28T08:56:40.425Z,28.20
2018-06-28T09:01:37.668Z,28.20
2018-06-28T09:04:07.573Z,28.50
2018-06-28T09:06:36.177Z,28.60
2018-06-28T09:09:07.922Z,28.30
2018-06-28T09:11:36.708Z,28.20
2018-06-28T09:14:05.486Z,28.60
2018-06-28T09:16:34.180Z,28.70
2018-06-28T09:19:02.893Z,29.10
2018-06-28T09:21:31.854Z,28.90
2018-06-28T09:24:00.958Z,29.10
2018-06-28T09:26:29.554Z,29.00
2018-06-28T09:28:58.164Z,28.50
2018-06-28T09:31:27.041Z,28.70
2018-06-28T09:33:55.753Z,28.70
2018-06-28T09:36:24.428Z,28.60
2018-06-28T09:38:53.322Z,28.60
2018-06-28T09:41:21.949Z,29.00
2018-06-28T09:43:50.500Z,29.00
2018-06-28T09:46:19.185Z,29.20
2018-06-28T09:48:47.863Z,29.30
2018-06-28T09:51:16.463Z,29.30
2018-06-28T09:53:45.072Z,29.20
2018-06-28T09:56:13.647Z,29.40
2018-06-28T09:58:42.274Z,29.50
2018-06-28T10:01:10.833Z,29.50
2018-06-28T10:03:39.454Z,29.50
2018-06-28T10:06:08.138Z,29.50
2018-06-28T10:08:36.969Z,29.60
2018-06-28T10:11:05.766Z,29.80
2018-06-28T10:13:34.365Z,29.80
2018-06-28T10:16:02.962Z,29.20
2018-06-28T10:18:32.290Z,29.40
2018-06-28T10:21:00.922Z,29.80
2018-06-28T10:23:29.518Z,29.60
2018-06-28T10:25:58.090Z,28.80
2018-06-28T10:28:26.896Z,29.40
2018-06-28T10:30:55.814Z,29.60
2018-06-28T10:33:24.356Z,29.60
2018-06-28T10:35:52.944Z,29.60
2018-06-28T10:38:21.504Z,29.80
2018-06-28T10:40:50.069Z,29.10
2018-06-28T10:43:18.838Z,29.30
2018-06-28T10:45:47.390Z,29.10
2018-06-28T10:48:15.964Z,29.30
2018-06-28T10:50:44.556Z,29.70
2018-06-28T10:53:13.079Z,29.10
2018-06-28T10:55:41.674Z,29.60
2018-06-28T10:58:10.334Z,29.50
2018-06-28T11:00:38.890Z,29.60
2018-06-28T11:03:07.551Z,29.90
2018-06-28T11:05:36.520Z,30.20
2018-06-28T11:08:05.222Z,30.10
2018-06-28T11:10:33.798Z,30.60
2018-06-28T11:13:02.400Z,30.70
2018-06-28T11:15:31.096Z,31.10
2018-06-28T11:17:59.667Z,31.00
2018-06-28T11:20:28.275Z,30.60
2018-06-28T11:22:57.423Z,30.60
2018-06-28T11:25:26.854Z,30.00
2018-06-28T11:27:55.632Z,29.90
2018-06-28T11:30:25.067Z,30.00
2018-06-28T11:32:53.597Z,30.40
2018-06-28T11:35:22.282Z,30.60
2018-06-28T11:37:50.851Z,30.80
2018-06-28T11:40:19.670Z,31.40
2018-06-28T11:42:48.322Z,31.00
2018-06-28T11:45:16.934Z,30.60
2018-06-28T11:47:45.557Z,30.70
2018-06-28T11:50:14.118Z,30.30
2018-06-28T11:52:42.781Z,30.00
2018-06-28T11:55:11.379Z,29.70
2018-06-28T11:57:39.937Z,29.60
2018-06-28T12:00:08.602Z,30.20
2018-06-28T12:02:37.292Z,30.50
2018-06-28T12:05:06.040Z,30.70
2018-06-28T12:07:35.765Z,30.30
2018-06-28T12:10:05.366Z,30.00
2018-06-28T12:12:34.112Z,29.80
2018-06-28T12:15:05.017Z,30.20
2018-06-28T12:17:33.774Z,30.90
2018-06-28T12:20:02.551Z,30.40
2018-06-28T12:22:31.257Z,29.70
2018-06-28T12:25:00.920Z,29.40
2018-06-28T12:27:29.542Z,30.00
2018-06-28T12:29:58.080Z,30.40
2018-06-28T12:32:26.631Z,30.70
2018-06-28T12:34:56.391Z,30.40
2018-06-28T12:37:24.974Z,30.80
2018-06-28T12:39:54.097Z,31.20
2018-06-28T12:42:22.874Z,30.60
2018-06-28T12:44:51.434Z,30.40
2018-06-28T12:47:46.970Z,30.40
2018-06-28T12:50:15.697Z,31.00
2018-06-28T12:52:49.601Z,30.80
2018-06-28T12:55:20.134Z,30.40
2018-06-28T13:00:17.957Z,29.50
2018-06-28T13:02:46.672Z,29.40
2018-06-28T13:05:15.973Z,29.50
2018-06-28T13:07:44.604Z,29.40
2018-06-28T13:10:14.707Z,30.10
2018-06-28T13:12:44.290Z,30.90
2018-06-28T13:15:14.002Z,31.10
2018-06-28T13:17:42.993Z,31.40
2018-06-28T13:20:12.347Z,30.70
2018-06-28T13:22:41.340Z,30.40
2018-06-28T13:25:11.539Z,30.20
2018-06-28T13:27:40.245Z,30.30
2018-06-28T13:30:10.032Z,31.00
2018-06-28T13:32:38.797Z,31.00
2018-06-28T13:35:07.713Z,30.70
2018-06-28T13:37:36.418Z,30.50
2018-06-28T13:40:06.087Z,29.80
2018-06-28T13:42:34.931Z,30.40
2018-06-28T13:45:03.651Z,30.60
2018-06-28T13:50:00.680Z,30.60
2018-06-28T13:52:29.326Z,30.90
2018-06-28T13:54:58.709Z,30.20
2018-06-28T13:57:27.384Z,30.20
2018-06-28T13:59:56.023Z,30.30
2018-06-28T14:02:24.623Z,31.10
2018-06-28T14:04:53.293Z,31.40
2018-06-28T14:07:21.843Z,31.10
2018-06-28T14:09:50.476Z,31.10
2018-06-28T14:12:19.131Z,31.20
2018-06-28T14:14:47.868Z,31.10
2018-06-28T14:17:16.489Z,29.80
2018-06-28T14:19:45.094Z,29.40
2018-06-28T14:22:13.836Z,29.20
2018-06-28T14:24:42.445Z,29.00
2018-06-28T14:27:11.269Z,28.80
2018-06-28T14:29:39.844Z,28.90
2018-06-28T14:32:08.579Z,29.20
2018-06-28T14:34:37.224Z,29.40
2018-06-28T14:37:06.167Z,29.00
2018-06-28T14:39:36.172Z,28.60
2018-06-28T14:42:04.905Z,28.10
2018-06-28T14:44:33.710Z,28.90
2018-06-28T14:47:02.317Z,29.40
2018-06-28T14:49:31.871Z,29.80
2018-06-28T14:52:01.365Z,29.70
2018-06-28T14:54:30.117Z,29.10
2018-06-28T14:56:59.865Z,28.90
2018-06-28T14:59:28.507Z,29.10
2018-06-28T15:01:57.174Z,29.30
2018-06-28T15:04:26.239Z,29.10
2018-06-28T15:06:54.965Z,29.10
2018-06-28T15:09:23.622Z,29.10
2018-06-28T15:11:52.284Z,28.90
2018-06-28T15:14:21.932Z,28.60
2018-06-28T15:16:50.898Z,28.40
2018-06-28T15:19:19.717Z,28.30
2018-06-28T15:21:48.561Z,28.20
2018-06-28T15:24:17.496Z,28.20
2018-06-28T15:26:47.000Z,28.10
2018-06-28T15:29:15.912Z,28.20
2018-06-28T15:31:44.521Z,28.00
2018-06-28T15:34:13.959Z,27.90
2018-06-28T15:36:42.722Z,27.80
2018-06-28T15:39:11.561Z,28.10
2018-06-28T15:41:40.816Z,28.10
2018-06-28T15:44:09.541Z,28.00
2018-06-28T15:46:38.187Z,27.90
2018-06-28T15:49:06.989Z,27.80
2018-06-28T15:51:35.685Z,27.60
2018-06-28T15:54:04.347Z,27.80
2018-06-28T15:56:33.117Z,27.60
2018-06-28T15:59:01.730Z,27.40
2018-06-28T16:01:31.019Z,27.50
2018-06-28T16:03:59.688Z,27.40
2018-06-28T16:06:29.126Z,27.60
2018-06-28T16:08:58.109Z,27.30
2018-06-28T16:11:28.354Z,27.40
2018-06-28T16:13:57.066Z,27.50
2018-06-28T16:16:25.791Z,27.40
2018-06-28T16:18:54.696Z,27.50
2018-06-28T16:21:23.409Z,27.40
2018-06-28T16:23:52.034Z,27.50
2018-06-28T16:26:20.831Z,27.40
2018-06-28T16:28:49.662Z,27.30
2018-06-28T16:31:18.446Z,27.30
2018-06-28T16:33:47.521Z,27.30
2018-06-28T16:36:16.285Z,27.00
2018-06-28T16:38:45.787Z,26.80
2018-06-28T16:41:14.460Z,26.60
2018-06-28T16:43:43.474Z,26.70
2018-06-28T16:46:12.204Z,26.60
2018-06-28T16:48:40.845Z,26.80
2018-06-28T16:51:11.356Z,26.70
2018-06-28T16:53:40.075Z,26.40
2018-06-28T16:56:08.866Z,26.20
2018-06-28T16:58:38.384Z,26.20
2018-06-28T17:01:07.988Z,26.20
2018-06-28T17:03:36.569Z,26.20
2018-06-28T17:06:05.740Z,26.20
2018-06-28T17:08:34.584Z,26.10
2018-06-28T17:13:31.819Z,26.00
2018-06-28T17:16:00.463Z,26.00
2018-06-28T17:18:29.167Z,26.10
2018-06-28T17:23:26.819Z,25.80
2018-06-28T17:25:55.524Z,26.00
2018-06-28T17:28:24.174Z,25.90
2018-06-28T17:30:53.064Z,25.70
2018-06-28T17:33:22.339Z,25.60
2018-06-28T17:35:51.032Z,25.60
2018-06-28T17:38:19.883Z,25.60
2018-06-28T17:40:48.562Z,25.50
2018-06-28T17:43:18.483Z,25.50
2018-06-28T17:45:47.236Z,25.40
2018-06-28T17:48:15.931Z,25.40
2018-06-28T17:50:45.268Z,25.30
2018-06-28T17:53:14.038Z,25.30
2018-06-28T17:55:42.764Z,25.20
2018-06-28T17:58:11.536Z,25.10
2018-06-28T18:00:40.393Z,25.10
2018-06-28T18:03:09.167Z,25.10
2018-06-28T18:08:06.240Z,25.00
2018-06-28T18:10:34.859Z,24.80
2018-06-28T18:13:03.487Z,24.90
2018-06-28T18:15:32.177Z,24.90
2018-06-28T18:18:00.925Z,24.90
2018-06-28T18:20:29.580Z,24.60
2018-06-28T18:22:59.312Z,24.60
2018-06-28T18:25:27.977Z,24.70
2018-06-28T18:27:56.839Z,24.70
2018-06-28T18:30:25.475Z,24.70
2018-06-28T18:32:54.100Z,24.50
2018-06-28T18:35:22.827Z,24.50
2018-06-28T18:37:51.591Z,24.50
2018-06-28T18:40:20.098Z,24.40
2018-06-28T18:42:48.799Z,24.40
2018-06-28T18:45:17.667Z,24.20
2018-06-28T18:47:46.273Z,24.20
2018-06-28T18:50:14.888Z,24.20
2018-06-28T18:52:43.761Z,24.00
2018-06-28T18:55:12.633Z,24.00
2018-06-28T18:57:41.298Z,24.00
2018-06-28T19:00:10.044Z,23.80
2018-06-28T19:02:38.886Z,23.80
2018-06-28T19:05:07.427Z,23.80
2018-06-28T19:07:36.033Z,23.70
2018-06-28T19:10:10.334Z,23.60
2018-06-28T19:12:38.904Z,23.60
2018-06-28T19:15:12.922Z,23.60
2018-06-28T19:17:41.472Z,23.60
2018-06-28T19:20:10.016Z,23.50
2018-06-28T19:22:44.024Z,23.50
2018-06-28T19:25:12.573Z,23.40
2018-06-28T19:27:41.131Z,23.20
2018-06-28T19:30:15.025Z,23.20
2018-06-28T19:32:43.531Z,23.10
2018-06-28T19:35:12.066Z,23.00
2018-06-28T19:37:46.130Z,23.10
2018-06-28T19:40:20.032Z,23.00
2018-06-28T19:42:54.409Z,22.90
2018-06-28T19:45:23.159Z,22.80
2018-06-28T19:51:23.551Z,22.70
2018-06-28T19:53:52.041Z,22.60
2018-06-28T19:56:20.654Z,22.40
2018-06-28T19:58:49.652Z,22.20
2018-06-28T20:01:23.561Z,22.20
2018-06-28T20:03:57.986Z,22.20
2018-06-28T20:06:26.426Z,22.10
2018-06-28T20:08:54.948Z,22.10
2018-06-28T20:11:24.050Z,22.00
2018-06-28T20:13:58.060Z,21.80
2018-06-28T20:16:32.017Z,21.70
2018-06-28T20:19:06.064Z,21.70
2018-06-28T20:21:34.532Z,21.60
2018-06-28T20:24:03.044Z,21.50
2018-06-28T20:26:36.912Z,21.40
2018-06-28T20:31:50.333Z,21.20
2018-06-28T20:34:19.453Z,21.10
2018-06-28T20:36:48.817Z,21.00
2018-06-28T20:39:18.726Z,21.00
2018-06-28T20:41:47.399Z,21.00
2018-06-28T20:44:16.039Z,20.80
2018-06-28T20:46:44.864Z,20.80
2018-06-28T20:49:13.455Z,20.80
2018-06-28T20:51:42.017Z,20.70
2018-06-28T20:54:10.623Z,20.70
2018-06-28T20:56:39.196Z,20.60
2018-06-28T20:59:08.831Z,20.60
2018-06-28T21:01:37.441Z,20.40
2018-06-28T21:04:06.098Z,20.40
2018-06-28T21:06:34.629Z,20.40
2018-06-28T21:09:03.216Z,20.10
2018-06-28T21:11:31.759Z,20.20
2018-06-28T21:14:00.576Z,20.10
2018-06-28T21:16:29.140Z,20.10
2018-06-28T21:18:57.665Z,20.10
2018-06-28T21:21:26.269Z,20.10
2018-06-28T21:23:54.837Z,20.00
2018-06-28T21:26:23.364Z,19.90
2018-06-28T21:28:52.008Z,19.90
2018-06-28T21:31:20.516Z,19.80
2018-06-28T21:33:49.803Z,19.80
2018-06-28T21:36:18.398Z,19.80
2018-06-28T21:38:46.981Z,19.60
2018-06-28T21:41:15.535Z,19.60
2018-06-28T21:43:44.150Z,19.50
2018-06-28T21:46:13.560Z,19.40
2018-06-28T21:48:42.143Z,19.50
2018-06-28T21:51:10.710Z,19.40
2018-06-28T21:53:39.395Z,19.30
2018-06-28T21:56:08.291Z,19.20
2018-06-28T21:58:36.814Z,19.20
2018-06-28T22:01:05.410Z,19.10
2018-06-28T22:03:33.984Z,19.10
2018-06-28T22:06:02.601Z,19.10
2018-06-28T22:08:31.504Z,19.00
2018-06-28T22:11:00.090Z,18.90
2018-06-28T22:13:28.700Z,18.90
2018-06-28T22:15:57.344Z,18.80
2018-06-28T22:18:25.937Z,18.80
2018-06-28T22:20:54.558Z,18.80
2018-06-28T22:23:23.090Z,18.70
2018-06-28T22:25:51.656Z,18.70
2018-06-28T22:28:20.197Z,18.60
2018-06-28T22:30:48.703Z,18.60
2018-06-28T22:35:45.440Z,18.60
2018-06-28T22:38:13.976Z,18.40
2018-06-28T22:40:42.556Z,18.40
2018-06-28T22:43:11.147Z,18.40
2018-06-28T22:45:39.914Z,18.30
2018-06-28T22:48:08.832Z,18.20
2018-06-28T22:50:37.377Z,18.10
2018-06-28T22:53:06.262Z,18.10
2018-06-28T22:55:34.852Z,18.00
2018-06-28T22:58:03.461Z,17.90
2018-06-28T23:00:32.987Z,17.90
2018-06-28T23:03:01.571Z,17.80
2018-06-28T23:05:30.131Z,17.80
2018-06-28T23:07:58.666Z,17.70
2018-06-28T23:10:27.206Z,17.70
2018-06-28T23:12:55.776Z,17.60
2018-06-28T23:15:24.431Z,17.60
2018-06-28T23:17:53.015Z,17.70
2018-06-28T23:20:21.627Z,17.40
2018-06-28T23:22:52.008Z,17.40
2018-06-28T23:25:21.054Z,17.50
2018-06-28T23:27:50.188Z,17.50
2018-06-28T23:30:18.926Z,17.40
2018-06-28T23:32:47.546Z,17.40
2018-06-28T23:35:16.199Z,17.30
2018-06-28T23:37:44.732Z,17.30
2018-06-28T23:40:13.343Z,17.30
2018-06-28T23:42:41.907Z,17.20
2018-06-28T23:45:10.727Z,17.20
2018-06-28T23:47:39.581Z,17.20
2018-06-28T23:50:09.321Z,17.20
2018-06-28T23:52:37.923Z,17.20
2018-06-28T23:55:07.123Z,17.10
2018-06-28T23:57:36.363Z,17.10
